Lambay — A8YA6 — position and weather

sailwx.info

Track history (hours):
 
Tides and Currents Weather Stations Pressure Air Temp Water Temp Dewpoint Dewpoint Depression Visibility Wind Speed Wind Dir Waves Ship Positions

Lambay

Last reported at 2018-Jun-06 22:53 UTC. Time now 2018-Jun-23 00:41 UTC.
Position N 28°22' W 015°59'.
Warning: this ship's position is 16 days out of date.

Length 225 m; draft 8 m.

Type: Cargo ship. MMSI: 636015008.

Date/timePositionNaut miles runAvg speedWind from/ knotsBaromVisibWave heightAir tempDewpointWater temp
2018-Jun-06 22:53N 28°22' W 015°59'614.6
2018-Jun-06 22:30N 28°26' W 015°55'714.4
2018-Jun-06 22:00N 28°32' W 015°50'714.4
2018-Jun-06 21:30N 28°37' W 015°45'714.6
2018-Jun-06 21:00N 28°42' W 015°39'714.5
2018-Jun-06 20:30N 28°47' W 015°33'714.5
2018-Jun-06 20:00N 28°52' W 015°26'814.8
2018-Jun-06 19:29N 28°57' W 015°20'64813.7
2018-Jun-04 20:20N 35°58' W 005°36'310.4
2018-Jun-04 20:00N 35°59' W 005°32'5 9.9
2018-Jun-04 19:30N 36°01' W 005°26'3 6.7
2018-Jun-04 19:00N 36°03' W 005°23'4 4.2
2018-Jun-04 18:05N 36°06' W 005°21'0 0.0
2018-Jun-04 17:50N 36°06' W 005°21'0 0.1
2018-Jun-04 16:20N 36°07' W 005°22'0 0.2
2018-Jun-04 15:53N 36°06' W 005°21'0 0.0
2018-Jun-04 14:23N 36°06' W 005°21'0 0.0
2018-Jun-04 12:17N 36°06' W 005°21'0 0.1
2018-Jun-04 11:53N 36°06' W 005°22'0 0.0
2018-Jun-04 11:08N 36°06' W 005°21'0 0.1
2018-Jun-04 10:53N 36°06' W 005°21'0 0.0
2018-Jun-04 09:38N 36°06' W 005°22'1 0.8
2018-Jun-04 08:40N 36°06' W 005°21'1 4.5
2018-Jun-04 08:28N 36°06' W 005°20'1 1.6
2018-Jun-04 08:00N 36°05' W 005°21'0 0.8
2018-Jun-04 07:30N 36°05' W 005°20'1 2.1
2018-Jun-04 06:56N 36°05' W 005°19'2 5.8
2018-Jun-04 06:30N 36°06' W 005°16'6 7.1
2018-Jun-04 05:42N 36°09' W 005°10'1 4.9
2018-Jun-04 05:30N 36°10' W 005°10'3 6.4
2018-Jun-04 05:00N 36°13' W 005°11'1 2.0
2018-Jun-04 04:28N 36°13' W 005°12'1 1.8
2018-Jun-04 04:00N 36°12' W 005°13'1 2.3
2018-Jun-04 03:30N 36°11' W 005°13'1 1.6
2018-Jun-04 03:00N 36°10' W 005°13'1 1.2
2018-Jun-04 02:30N 36°10' W 005°12'0 0.9
2018-Jun-04 02:00N 36°10' W 005°12'0 1.0
2018-Jun-04 01:30N 36°09' W 005°12'1 2.1
2018-Jun-04 01:00N 36°09' W 005°13'1 1.1
2018-Jun-04 00:30N 36°08' W 005°13'0 0.9
2018-Jun-04 00:00N 36°08' W 005°13'1 2.0
2018-Jun-03 23:30N 36°07' W 005°12'1 2.1
2018-Jun-03 23:01N 36°06' W 005°12'1 1.6
2018-Jun-03 22:30N 36°06' W 005°13'1 1.6
2018-Jun-03 22:00N 36°07' W 005°13'2 3.5
2018-Jun-03 21:30N 36°09' W 005°12'3 6.4
2018-Jun-03 20:59N 36°11' W 005°10'5 8.2
2018-Jun-03 20:25N 36°14' W 005°05'1 1.0
2018-Jun-03 19:40N 36°13' W 005°05'1 2.0
2018-Jun-03 19:22N 36°13' W 005°06'3 1.9
2018-Jun-03 17:54N 36°10' W 005°07'1 1.8
2018-Jun-03 17:30N 36°10' W 005°08'1 1.7
2018-Jun-03 17:00N 36°09' W 005°09'1 1.8
2018-Jun-03 16:30N 36°09' W 005°09'1 1.9
2018-Jun-03 16:00N 36°08' W 005°10'2 1.4
2018-Jun-03 14:54N 36°06' W 005°10'51711.4
2018-Jun-01 17:45N 37°26' E 005°27'313.5
2018-Jun-01 17:30N 37°27' E 005°31'  
Track history (hours):
 
Tides and Currents Weather Stations Pressure Air Temp Water Temp Dewpoint Dewpoint Depression Visibility Wind Speed Wind Dir Waves Ship Positions

Lambay

Last reported at 2018-Jun-06 22:53 UTC. Time now 2018-Jun-23 00:41 UTC.
Position N 28°22' W 015°59'.
Warning: this ship's position is 16 days out of date.

Length 225 m; draft 8 m.

Type: Cargo ship. MMSI: 636015008.

Date/timePositionNaut miles runAvg speedWind from/ knotsBaromVisibWave heightAir tempDewpointWater temp
2018-Jun-06 22:53N 28°22' W 015°59'614.6
2018-Jun-06 22:30N 28°26' W 015°55'714.4
2018-Jun-06 22:00N 28°32' W 015°50'714.4
2018-Jun-06 21:30N 28°37' W 015°45'714.6
2018-Jun-06 21:00N 28°42' W 015°39'714.5
2018-Jun-06 20:30N 28°47' W 015°33'714.5
2018-Jun-06 20:00N 28°52' W 015°26'814.8
2018-Jun-06 19:29N 28°57' W 015°20'64813.7
2018-Jun-04 20:20N 35°58' W 005°36'310.4
2018-Jun-04 20:00N 35°59' W 005°32'5 9.9
2018-Jun-04 19:30N 36°01' W 005°26'3 6.7
2018-Jun-04 19:00N 36°03' W 005°23'4 4.2
2018-Jun-04 18:05N 36°06' W 005°21'0 0.0
2018-Jun-04 17:50N 36°06' W 005°21'0 0.1
2018-Jun-04 16:20N 36°07' W 005°22'0 0.2
2018-Jun-04 15:53N 36°06' W 005°21'0 0.0
2018-Jun-04 14:23N 36°06' W 005°21'0 0.0
2018-Jun-04 12:17N 36°06' W 005°21'0 0.1
2018-Jun-04 11:53N 36°06' W 005°22'0 0.0
2018-Jun-04 11:08N 36°06' W 005°21'0 0.1
2018-Jun-04 10:53N 36°06' W 005°21'0 0.0
2018-Jun-04 09:38N 36°06' W 005°22'1 0.8
2018-Jun-04 08:40N 36°06' W 005°21'1 4.5
2018-Jun-04 08:28N 36°06' W 005°20'1 1.6
2018-Jun-04 08:00N 36°05' W 005°21'0 0.8
2018-Jun-04 07:30N 36°05' W 005°20'1 2.1
2018-Jun-04 06:56N 36°05' W 005°19'2 5.8
2018-Jun-04 06:30N 36°06' W 005°16'6 7.1
2018-Jun-04 05:42N 36°09' W 005°10'1 4.9
2018-Jun-04 05:30N 36°10' W 005°10'3 6.4
2018-Jun-04 05:00N 36°13' W 005°11'1 2.0
2018-Jun-04 04:28N 36°13' W 005°12'1 1.8
2018-Jun-04 04:00N 36°12' W 005°13'1 2.3
2018-Jun-04 03:30N 36°11' W 005°13'1 1.6
2018-Jun-04 03:00N 36°10' W 005°13'1 1.2
2018-Jun-04 02:30N 36°10' W 005°12'0 0.9
2018-Jun-04 02:00N 36°10' W 005°12'0 1.0
2018-Jun-04 01:30N 36°09' W 005°12'1 2.1
2018-Jun-04 01:00N 36°09' W 005°13'1 1.1
2018-Jun-04 00:30N 36°08' W 005°13'0 0.9
2018-Jun-04 00:00N 36°08' W 005°13'1 2.0
2018-Jun-03 23:30N 36°07' W 005°12'1 2.1
2018-Jun-03 23:01N 36°06' W 005°12'1 1.6
2018-Jun-03 22:30N 36°06' W 005°13'1 1.6
2018-Jun-03 22:00N 36°07' W 005°13'2 3.5
2018-Jun-03 21:30N 36°09' W 005°12'3 6.4
2018-Jun-03 20:59N 36°11' W 005°10'5 8.2
2018-Jun-03 20:25N 36°14' W 005°05'1 1.0
2018-Jun-03 19:40N 36°13' W 005°05'1 2.0
2018-Jun-03 19:22N 36°13' W 005°06'3 1.9
2018-Jun-03 17:54N 36°10' W 005°07'1 1.8
2018-Jun-03 17:30N 36°10' W 005°08'1 1.7
2018-Jun-03 17:00N 36°09' W 005°09'1 1.8
2018-Jun-03 16:30N 36°09' W 005°09'1 1.9
2018-Jun-03 16:00N 36°08' W 005°10'2 1.4
2018-Jun-03 14:54N 36°06' W 005°10'51711.4
2018-Jun-01 17:45N 37°26' E 005°27'313.5
2018-Jun-01 17:30N 37°27' E 005°31'  

Dump ship's entire track history